sensor_id;sensor_type;location;lat;lon;timestamp;pressure;altitude;pressure_sealevel;temperature;humidity
53940;BME280;39850;43.324;21.916;2022-09-14T00:02:38;991.0;;;13.5;77.0
53940;BME280;39850;43.324;21.916;2022-09-14T00:07:16;991.0;;;13.6;77.0
53940;BME280;39850;43.324;21.916;2022-09-14T00:11:53;991.0;;;13.6;77.0
53940;BME280;39850;43.324;21.916;2022-09-14T00:16:42;991.0;;;13.6;77.0
53940;BME280;39850;43.324;21.916;2022-09-14T00:21:23;991.0;;;13.6;77.0
53940;BME280;39850;43.324;21.916;2022-09-14T00:26:16;991.0;;;13.6;78.0
53940;BME280;39850;43.324;21.916;2022-09-14T00:30:53;991.0;;;13.6;78.0
53940;BME280;39850;43.324;21.916;2022-09-14T00:35:33;991.0;;;13.7;78.0
53940;BME280;39850;43.324;21.916;2022-09-14T00:40:11;991.0;;;13.7;78.0
53940;BME280;39850;43.324;21.916;2022-09-14T00:45:18;991.0;;;13.7;78.0
53940;BME280;39850;43.324;21.916;2022-09-14T01:19:32;991.0;;;13.7;78.0
53940;BME280;39850;43.324;21.916;2022-09-14T01:24:47;991.0;;;13.7;78.0
53940;BME280;39850;43.324;21.916;2022-09-14T01:29:52;991.0;;;13.2;78.0
53940;BME280;39850;43.324;21.916;2022-09-14T01:35:07;991.0;;;13.2;78.0
53940;BME280;39850;43.324;21.916;2022-09-14T01:40:19;991.0;;;13.4;78.0
53940;BME280;39850;43.324;21.916;2022-09-14T01:45:21;991.0;;;13.4;78.0
53940;BME280;39850;43.324;21.916;2022-09-14T01:50:24;991.0;;;13.1;78.0
53940;BME280;39850;43.324;21.916;2022-09-14T01:55:26;991.0;;;13.1;78.0
53940;BME280;39850;43.324;21.916;2022-09-14T02:00:21;991.0;;;13.4;79.0
53940;BME280;39850;43.324;21.916;2022-09-14T02:05:20;991.0;;;13.4;79.0
53940;BME280;39850;43.324;21.916;2022-09-14T02:40:23;991.0;;;12.7;80.0
53940;BME280;39850;43.324;21.916;2022-09-14T02:46:02;991.0;;;12.7;80.0
53940;BME280;39850;43.324;21.916;2022-09-14T02:51:26;991.0;;;12.7;79.0
53940;BME280;39850;43.324;21.916;2022-09-14T02:56:18;991.0;;;12.7;79.0
53940;BME280;39850;43.324;21.916;2022-09-14T03:00:56;991.0;;;12.7;79.0
53940;BME280;39850;43.324;21.916;2022-09-14T03:05:36;991.0;;;12.7;79.0
53940;BME280;39850;43.324;21.916;2022-09-14T03:10:14;991.0;;;12.7;79.0
53940;BME280;39850;43.324;21.916;2022-09-14T03:14:52;991.0;;;12.7;79.0
53940;BME280;39850;43.324;21.916;2022-09-14T03:19:28;991.0;;;12.7;79.0
53940;BME280;39850;43.324;21.916;2022-09-14T03:24:06;991.0;;;12.7;79.0
53940;BME280;39850;43.324;21.916;2022-09-14T03:56:35;991.0;;;12.7;80.0
53940;BME280;39850;43.324;21.916;2022-09-14T04:01:21;991.0;;;12.7;80.0
53940;BME280;39850;43.324;21.916;2022-09-14T04:05:59;991.0;;;12.7;80.0
53940;BME280;39850;43.324;21.916;2022-09-14T04:10:39;991.0;;;12.7;80.0
53940;BME280;39850;43.324;21.916;2022-09-14T04:15:16;991.0;;;12.7;80.0
53940;BME280;39850;43.324;21.916;2022-09-14T04:19:54;991.0;;;12.7;80.0
53940;BME280;39850;43.324;21.916;2022-09-14T04:24:31;991.0;;;12.7;80.0
53940;BME280;39850;43.324;21.916;2022-09-14T04:29:13;991.0;;;12.7;79.0
53940;BME280;39850;43.324;21.916;2022-09-14T04:33:54;991.0;;;12.7;79.0
53940;BME280;39850;43.324;21.916;2022-09-14T04:38:37;991.0;;;12.7;78.0
53940;BME280;39850;43.324;21.916;2022-09-14T04:43:16;991.0;;;12.7;78.0
53940;BME280;39850;43.324;21.916;2022-09-14T05:21:18;991.0;;;13.5;76.0
53940;BME280;39850;43.324;21.916;2022-09-14T05:25:58;991.0;;;13.5;76.0
53940;BME280;39850;43.324;21.916;2022-09-14T05:30:39;991.0;;;13.5;76.0
53940;BME280;39850;43.324;21.916;2022-09-14T05:35:17;991.0;;;13.5;76.0
53940;BME280;39850;43.324;21.916;2022-09-14T05:39:54;991.0;;;13.5;76.0
53940;BME280;39850;43.324;21.916;2022-09-14T05:44:31;991.0;;;13.5;76.0
53940;BME280;39850;43.324;21.916;2022-09-14T05:49:08;991.0;;;13.6;76.0
53940;BME280;39850;43.324;21.916;2022-09-14T05:53:50;991.0;;;13.6;76.0
53940;BME280;39850;43.324;21.916;2022-09-14T05:58:29;991.0;;;13.7;77.0
53940;BME280;39850;43.324;21.916;2022-09-14T06:03:07;991.0;;;13.7;77.0
53940;BME280;39850;43.324;21.916;2022-09-14T06:40:11;991.0;;;20.0;55.0
53940;BME280;39850;43.324;21.916;2022-09-14T06:44:47;991.0;;;20.0;55.0
53940;BME280;39850;43.324;21.916;2022-09-14T06:49:24;991.0;;;19.8;55.0
53940;BME280;39850;43.324;21.916;2022-09-14T06:54:06;991.0;;;19.8;55.0
53940;BME280;39850;43.324;21.916;2022-09-14T06:58:46;991.0;;;19.6;55.0
53940;BME280;39850;43.324;21.916;2022-09-14T07:03:23;991.0;;;19.6;55.0
53940;BME280;39850;43.324;21.916;2022-09-14T07:08:01;991.0;;;19.5;56.0
53940;BME280;39850;43.324;21.916;2022-09-14T07:12:38;991.0;;;19.5;56.0
53940;BME280;39850;43.324;21.916;2022-09-14T07:17:14;991.0;;;19.3;56.0
53940;BME280;39850;43.324;21.916;2022-09-14T07:21:51;991.0;;;19.3;56.0
53940;BME280;39850;43.324;21.916;2022-09-14T07:26:36;991.0;;;19.3;56.0
53940;BME280;39850;43.324;21.916;2022-09-14T07:59:30;991.0;;;22.2;49.0
53940;BME280;39850;43.324;21.916;2022-09-14T08:04:08;991.0;;;22.2;49.0
53940;BME280;39850;43.324;21.916;2022-09-14T08:08:55;991.0;;;22.6;47.0
53940;BME280;39850;43.324;21.916;2022-09-14T08:13:39;991.0;;;22.6;47.0
53940;BME280;39850;43.324;21.916;2022-09-14T08:18:20;991.0;;;23.1;46.0
53940;BME280;39850;43.324;21.916;2022-09-14T08:22:59;991.0;;;23.1;46.0
53940;BME280;39850;43.324;21.916;2022-09-14T08:27:38;991.0;;;23.4;46.0
53940;BME280;39850;43.324;21.916;2022-09-14T08:32:15;991.0;;;23.4;46.0
53940;BME280;39850;43.324;21.916;2022-09-14T08:36:52;991.0;;;23.4;46.0
53940;BME280;39850;43.324;21.916;2022-09-14T08:41:51;991.0;;;23.7;46.0
53940;BME280;39850;43.324;21.916;2022-09-14T08:46:46;991.0;;;23.7;46.0
53940;BME280;39850;43.324;21.916;2022-09-14T09:21:01;990.0;;;24.4;44.0
53940;BME280;39850;43.324;21.916;2022-09-14T09:26:05;990.0;;;24.4;44.0
53940;BME280;39850;43.324;21.916;2022-09-14T09:30:56;990.0;;;24.5;44.0
53940;BME280;39850;43.324;21.916;2022-09-14T09:35:39;990.0;;;24.5;44.0
53940;BME280;39850;43.324;21.916;2022-09-14T09:40:36;990.0;;;24.6;44.0
53940;BME280;39850;43.324;21.916;2022-09-14T09:45:21;990.0;;;24.6;44.0
53940;BME280;39850;43.324;21.916;2022-09-14T09:50:20;990.0;;;24.6;44.0
53940;BME280;39850;43.324;21.916;2022-09-14T09:55:17;990.0;;;24.6;44.0
53940;BME280;39850;43.324;21.916;2022-09-14T10:00:26;990.0;;;24.6;44.0
53940;BME280;39850;43.324;21.916;2022-09-14T10:05:26;990.0;;;24.6;44.0
53940;BME280;39850;43.324;21.916;2022-09-14T10:40:19;990.0;;;24.6;43.0
53940;BME280;39850;43.324;21.916;2022-09-14T10:45:39;990.0;;;24.6;43.0
53940;BME280;39850;43.324;21.916;2022-09-14T10:51:39;990.0;;;25.0;43.0
53940;BME280;39850;43.324;21.916;2022-09-14T10:57:21;990.0;;;25.0;43.0
53940;BME280;39850;43.324;21.916;2022-09-14T11:03:53;989.0;;;25.3;43.0
53940;BME280;39850;43.324;21.916;2022-09-14T11:09:17;989.0;;;25.4;42.0
53940;BME280;39850;43.324;21.916;2022-09-14T11:14:48;989.0;;;25.4;42.0
53940;BME280;39850;43.324;21.916;2022-09-14T11:20:04;989.0;;;25.5;41.0
53940;BME280;39850;43.324;21.916;2022-09-14T11:25:03;989.0;;;25.5;41.0
53940;BME280;39850;43.324;21.916;2022-09-14T11:59:06;989.0;;;25.3;34.0
53940;BME280;39850;43.324;21.916;2022-09-14T12:04:19;989.0;;;25.3;34.0
53940;BME280;39850;43.324;21.916;2022-09-14T12:09:43;989.0;;;25.3;34.0
53940;BME280;39850;43.324;21.916;2022-09-14T12:14:36;989.0;;;25.3;34.0
53940;BME280;39850;43.324;21.916;2022-09-14T12:19:17;989.0;;;25.3;34.0
53940;BME280;39850;43.324;21.916;2022-09-14T12:23:56;989.0;;;25.3;34.0
53940;BME280;39850;43.324;21.916;2022-09-14T12:28:52;989.0;;;25.3;33.0
53940;BME280;39850;43.324;21.916;2022-09-14T12:34:19;989.0;;;25.3;33.0
53940;BME280;39850;43.324;21.916;2022-09-14T12:39:26;989.0;;;25.3;33.0
53940;BME280;39850;43.324;21.916;2022-09-14T12:44:38;989.0;;;25.3;33.0
53940;BME280;39850;43.324;21.916;2022-09-14T13:19:29;988.0;;;25.3;34.0
53940;BME280;39850;43.324;21.916;2022-09-14T13:24:47;988.0;;;25.3;34.0
53940;BME280;39850;43.324;21.916;2022-09-14T13:29:29;988.0;;;25.4;34.0
53940;BME280;39850;43.324;21.916;2022-09-14T13:34:21;988.0;;;25.4;34.0
53940;BME280;39850;43.324;21.916;2022-09-14T13:39:28;988.0;;;25.5;34.0
53940;BME280;39850;43.324;21.916;2022-09-14T13:44:13;988.0;;;25.5;34.0
53940;BME280;39850;43.324;21.916;2022-09-14T13:48:55;988.0;;;25.5;34.0
53940;BME280;39850;43.324;21.916;2022-09-14T13:53:49;988.0;;;25.5;34.0
53940;BME280;39850;43.324;21.916;2022-09-14T13:58:26;988.0;;;25.5;34.0
53940;BME280;39850;43.324;21.916;2022-09-14T14:03:04;988.0;;;25.5;34.0
53940;BME280;39850;43.324;21.916;2022-09-14T14:07:46;988.0;;;25.5;34.0
53940;BME280;39850;43.324;21.916;2022-09-14T14:40:55;987.0;;;25.5;36.0
53940;BME280;39850;43.324;21.916;2022-09-14T14:45:34;987.0;;;25.5;36.0
53940;BME280;39850;43.324;21.916;2022-09-14T14:50:19;987.0;;;25.5;37.0
53940;BME280;39850;43.324;21.916;2022-09-14T14:54:58;987.0;;;25.5;37.0
53940;BME280;39850;43.324;21.916;2022-09-14T14:59:35;987.0;;;25.5;37.0
53940;BME280;39850;43.324;21.916;2022-09-14T15:04:13;987.0;;;25.5;37.0
53940;BME280;39850;43.324;21.916;2022-09-14T15:08:55;987.0;;;25.2;38.0
53940;BME280;39850;43.324;21.916;2022-09-14T15:13:32;987.0;;;25.2;38.0
53940;BME280;39850;43.324;21.916;2022-09-14T15:18:10;987.0;;;25.2;38.0
53940;BME280;39850;43.324;21.916;2022-09-14T15:22:48;987.0;;;24.9;38.0
53940;BME280;39850;43.324;21.916;2022-09-14T15:27:26;987.0;;;24.9;38.0
53940;BME280;39850;43.324;21.916;2022-09-14T16:00:14;987.0;;;24.4;40.0
53940;BME280;39850;43.324;21.916;2022-09-14T16:04:51;987.0;;;24.4;40.0
53940;BME280;39850;43.324;21.916;2022-09-14T16:09:28;987.0;;;24.4;40.0
53940;BME280;39850;43.324;21.916;2022-09-14T16:14:11;987.0;;;24.4;40.0
53940;BME280;39850;43.324;21.916;2022-09-14T16:18:49;987.0;;;24.5;40.0
53940;BME280;39850;43.324;21.916;2022-09-14T16:23:26;987.0;;;24.5;40.0
53940;BME280;39850;43.324;21.916;2022-09-14T16:28:03;987.0;;;24.5;40.0
53940;BME280;39850;43.324;21.916;2022-09-14T16:32:40;987.0;;;24.6;40.0
53940;BME280;39850;43.324;21.916;2022-09-14T16:37:16;987.0;;;24.6;40.0
53940;BME280;39850;43.324;21.916;2022-09-14T16:41:53;987.0;;;24.6;40.0
53940;BME280;39850;43.324;21.916;2022-09-14T16:46:33;987.0;;;24.6;40.0
53940;BME280;39850;43.324;21.916;2022-09-14T17:19:12;987.0;;;23.7;43.0
53940;BME280;39850;43.324;21.916;2022-09-14T17:23:51;987.0;;;23.7;43.0
53940;BME280;39850;43.324;21.916;2022-09-14T17:28:29;987.0;;;23.7;43.0
53940;BME280;39850;43.324;21.916;2022-09-14T17:33:06;987.0;;;23.7;44.0
53940;BME280;39850;43.324;21.916;2022-09-14T17:37:43;987.0;;;23.7;44.0
53940;BME280;39850;43.324;21.916;2022-09-14T17:42:20;987.0;;;23.7;44.0
53940;BME280;39850;43.324;21.916;2022-09-14T17:46:57;987.0;;;23.7;44.0
53940;BME280;39850;43.324;21.916;2022-09-14T17:51:34;987.0;;;23.4;45.0
53940;BME280;39850;43.324;21.916;2022-09-14T17:56:20;987.0;;;23.4;45.0
53940;BME280;39850;43.324;21.916;2022-09-14T18:01:10;987.0;;;23.1;45.0
53940;BME280;39850;43.324;21.916;2022-09-14T18:05:54;987.0;;;23.1;45.0
53940;BME280;39850;43.324;21.916;2022-09-14T18:43:16;988.0;;;22.8;50.0
53940;BME280;39850;43.324;21.916;2022-09-14T18:47:54;988.0;;;22.8;50.0
53940;BME280;39850;43.324;21.916;2022-09-14T18:52:31;988.0;;;22.8;51.0
53940;BME280;39850;43.324;21.916;2022-09-14T18:57:09;988.0;;;22.8;51.0
53940;BME280;39850;43.324;21.916;2022-09-14T19:01:46;988.0;;;22.8;51.0
53940;BME280;39850;43.324;21.916;2022-09-14T19:06:24;988.0;;;22.8;51.0
53940;BME280;39850;43.324;21.916;2022-09-14T19:11:14;988.0;;;22.8;51.0
53940;BME280;39850;43.324;21.916;2022-09-14T19:15:51;988.0;;;22.8;51.0
53940;BME280;39850;43.324;21.916;2022-09-14T19:20:27;988.0;;;22.8;52.0
53940;BME280;39850;43.324;21.916;2022-09-14T19:25:07;988.0;;;22.8;52.0
53940;BME280;39850;43.324;21.916;2022-09-14T20:02:11;988.0;;;20.8;59.0
53940;BME280;39850;43.324;21.916;2022-09-14T20:06:48;988.0;;;20.8;59.0
53940;BME280;39850;43.324;21.916;2022-09-14T20:11:33;988.0;;;20.8;59.0
53940;BME280;39850;43.324;21.916;2022-09-14T20:16:21;988.0;;;20.8;59.0
53940;BME280;39850;43.324;21.916;2022-09-14T20:21:08;988.0;;;20.8;60.0
53940;BME280;39850;43.324;21.916;2022-09-14T20:25:48;988.0;;;20.8;60.0
53940;BME280;39850;43.324;21.916;2022-09-14T20:30:26;988.0;;;20.8;60.0
53940;BME280;39850;43.324;21.916;2022-09-14T20:35:04;988.0;;;20.8;60.0
53940;BME280;39850;43.324;21.916;2022-09-14T20:39:41;988.0;;;20.8;61.0
53940;BME280;39850;43.324;21.916;2022-09-14T20:44:19;988.0;;;20.8;61.0
53940;BME280;39850;43.324;21.916;2022-09-14T20:48:58;988.0;;;20.8;61.0
53940;BME280;39850;43.324;21.916;2022-09-14T21:21:34;988.0;;;19.8;65.0
53940;BME280;39850;43.324;21.916;2022-09-14T21:26:15;988.0;;;19.8;65.0
53940;BME280;39850;43.324;21.916;2022-09-14T21:31:09;988.0;;;19.8;65.0
53940;BME280;39850;43.324;21.916;2022-09-14T21:35:47;988.0;;;19.8;65.0
53940;BME280;39850;43.324;21.916;2022-09-14T21:40:24;988.0;;;19.8;65.0
53940;BME280;39850;43.324;21.916;2022-09-14T21:45:01;988.0;;;19.8;65.0
53940;BME280;39850;43.324;21.916;2022-09-14T21:49:38;988.0;;;19.8;65.0
53940;BME280;39850;43.324;21.916;2022-09-14T21:54:17;988.0;;;19.8;65.0
53940;BME280;39850;43.324;21.916;2022-09-14T21:59:05;988.0;;;19.8;65.0
53940;BME280;39850;43.324;21.916;2022-09-14T22:03:42;988.0;;;19.9;66.0
53940;BME280;39850;43.324;21.916;2022-09-14T22:08:19;988.0;;;19.9;66.0
53940;BME280;39850;43.324;21.916;2022-09-14T22:40:43;989.0;;;18.9;65.0
53940;BME280;39850;43.324;21.916;2022-09-14T22:45:20;989.0;;;18.9;65.0
53940;BME280;39850;43.324;21.916;2022-09-14T22:49:56;989.0;;;18.9;65.0
53940;BME280;39850;43.324;21.916;2022-09-14T22:54:33;989.0;;;18.9;65.0
53940;BME280;39850;43.324;21.916;2022-09-14T22:59:10;989.0;;;18.9;65.0
53940;BME280;39850;43.324;21.916;2022-09-14T23:03:58;989.0;;;18.9;65.0
53940;BME280;39850;43.324;21.916;2022-09-14T23:08:40;989.0;;;18.9;65.0
53940;BME280;39850;43.324;21.916;2022-09-14T23:13:17;989.0;;;18.9;65.0
53940;BME280;39850;43.324;21.916;2022-09-14T23:17:55;989.0;;;18.9;65.0
53940;BME280;39850;43.324;21.916;2022-09-14T23:22:32;989.0;;;18.9;65.0
53940;BME280;39850;43.324;21.916;2022-09-14T23:27:09;989.0;;;18.9;65.0
